sensor_id;sensor_type;location;lat;lon;timestamp;temperature;humidity
55151;DHT22;41041;43.162;20.538;2022-07-19T00:02:26;461.10;1843.20
55151;DHT22;41041;43.162;20.538;2022-07-19T00:04:52;461.00;1843.20
55151;DHT22;41041;43.162;20.538;2022-07-19T00:07:17;461.00;1843.20
55151;DHT22;41041;43.162;20.538;2022-07-19T00:09:43;460.90;1868.80
55151;DHT22;41041;43.162;20.538;2022-07-19T00:12:09;461.10;1868.80
55151;DHT22;41041;43.162;20.538;2022-07-19T00:14:38;460.80;1868.80
55151;DHT22;41041;43.162;20.538;2022-07-19T00:17:04;436.10;1868.80
55151;DHT22;41041;43.162;20.538;2022-07-19T00:19:30;436.10;1843.20
55151;DHT22;41041;43.162;20.538;2022-07-19T00:21:56;436.10;1868.80
55151;DHT22;41041;43.162;20.538;2022-07-19T00:24:40;436.00;1868.80
55151;DHT22;41041;43.162;20.538;2022-07-19T00:27:06;436.00;1868.80
55151;DHT22;41041;43.162;20.538;2022-07-19T00:29:32;436.00;1868.80
55151;DHT22;41041;43.162;20.538;2022-07-19T00:32:04;436.00;1868.80
55151;DHT22;41041;43.162;20.538;2022-07-19T00:34:30;436.00;1868.80
55151;DHT22;41041;43.162;20.538;2022-07-19T00:36:56;435.90;1868.80
55151;DHT22;41041;43.162;20.538;2022-07-19T00:39:23;435.80;1894.40
55151;DHT22;41041;43.162;20.538;2022-07-19T00:41:48;435.80;1894.40
55151;DHT22;41041;43.162;20.538;2022-07-19T00:44:14;435.70;1894.40
55151;DHT22;41041;43.162;20.538;2022-07-19T00:46:40;435.70;1894.40
55151;DHT22;41041;43.162;20.538;2022-07-19T00:49:06;435.70;1894.40
55151;DHT22;41041;43.162;20.538;2022-07-19T00:51:37;435.70;1920.00
55151;DHT22;41041;43.162;20.538;2022-07-19T00:54:12;435.70;1920.00
55151;DHT22;41041;43.162;20.538;2022-07-19T00:56:38;435.60;1920.00
55151;DHT22;41041;43.162;20.538;2022-07-19T00:59:04;435.50;1920.00
55151;DHT22;41041;43.162;20.538;2022-07-19T01:01:37;435.50;1945.60
55151;DHT22;41041;43.162;20.538;2022-07-19T01:04:03;435.50;1945.60
55151;DHT22;41041;43.162;20.538;2022-07-19T01:06:31;435.40;1920.00
55151;DHT22;41041;43.162;20.538;2022-07-19T01:08:57;435.40;1945.60
55151;DHT22;41041;43.162;20.538;2022-07-19T01:11:22;435.40;1945.60
55151;DHT22;41041;43.162;20.538;2022-07-19T01:13:49;435.30;1945.60
55151;DHT22;41041;43.162;20.538;2022-07-19T01:16:15;435.20;1971.20
55151;DHT22;41041;43.162;20.538;2022-07-19T01:18:41;435.20;1971.20
55151;DHT22;41041;43.162;20.538;2022-07-19T01:21:07;410.50;1971.20
55151;DHT22;41041;43.162;20.538;2022-07-19T01:23:33;410.50;1971.20
55151;DHT22;41041;43.162;20.538;2022-07-19T01:25:59;410.50;1971.20
55151;DHT22;41041;43.162;20.538;2022-07-19T01:28:25;410.50;1971.20
55151;DHT22;41041;43.162;20.538;2022-07-19T01:30:51;410.50;1971.20
55151;DHT22;41041;43.162;20.538;2022-07-19T01:33:17;435.20;1971.20
55151;DHT22;41041;43.162;20.538;2022-07-19T01:35:42;435.20;2048.00
55151;DHT22;41041;43.162;20.538;2022-07-19T01:38:08;410.50;1971.20
55151;DHT22;41041;43.162;20.538;2022-07-19T01:40:34;435.30;1971.20
55151;DHT22;41041;43.162;20.538;2022-07-19T01:43:00;435.20;1971.20
55151;DHT22;41041;43.162;20.538;2022-07-19T01:45:26;410.50;1971.20
55151;DHT22;41041;43.162;20.538;2022-07-19T01:47:51;410.30;1996.80
55151;DHT22;41041;43.162;20.538;2022-07-19T01:50:17;410.40;1996.80
55151;DHT22;41041;43.162;20.538;2022-07-19T01:52:44;410.30;1996.80
55151;DHT22;41041;43.162;20.538;2022-07-19T01:55:10;410.30;1996.80
55151;DHT22;41041;43.162;20.538;2022-07-19T01:57:36;410.20;1996.80
55151;DHT22;41041;43.162;20.538;2022-07-19T02:00:08;410.10;2022.40
55151;DHT22;41041;43.162;20.538;2022-07-19T02:02:34;410.00;2022.40
55151;DHT22;41041;43.162;20.538;2022-07-19T02:05:01;410.00;2022.40
55151;DHT22;41041;43.162;20.538;2022-07-19T02:07:29;410.00;2022.40
55151;DHT22;41041;43.162;20.538;2022-07-19T02:09:58;410.00;2022.40
55151;DHT22;41041;43.162;20.538;2022-07-19T02:12:24;410.00;2022.40
55151;DHT22;41041;43.162;20.538;2022-07-19T02:14:51;410.00;2022.40
55151;DHT22;41041;43.162;20.538;2022-07-19T02:17:16;410.10;2022.40
55151;DHT22;41041;43.162;20.538;2022-07-19T02:19:42;410.10;1996.80
55151;DHT22;41041;43.162;20.538;2022-07-19T02:22:08;409.90;2022.40
55151;DHT22;41041;43.162;20.538;2022-07-19T02:24:33;409.90;2022.40
55151;DHT22;41041;43.162;20.538;2022-07-19T02:26:59;409.90;2022.40
55151;DHT22;41041;43.162;20.538;2022-07-19T02:29:25;409.90;2022.40
55151;DHT22;41041;43.162;20.538;2022-07-19T02:31:50;409.80;2048.00
55151;DHT22;41041;43.162;20.538;2022-07-19T02:34:21;409.90;2022.40
55151;DHT22;41041;43.162;20.538;2022-07-19T02:36:47;409.90;2022.40
55151;DHT22;41041;43.162;20.538;2022-07-19T02:39:13;409.90;2048.00
55151;DHT22;41041;43.162;20.538;2022-07-19T02:41:48;409.90;2048.00
55151;DHT22;41041;43.162;20.538;2022-07-19T02:44:13;409.80;2048.00
55151;DHT22;41041;43.162;20.538;2022-07-19T02:46:39;409.80;2048.00
55151;DHT22;41041;43.162;20.538;2022-07-19T02:49:05;409.90;2048.00
55151;DHT22;41041;43.162;20.538;2022-07-19T02:51:30;409.80;2048.00
55151;DHT22;41041;43.162;20.538;2022-07-19T02:53:56;409.70;2048.00
55151;DHT22;41041;43.162;20.538;2022-07-19T02:56:21;409.70;2073.60
55151;DHT22;41041;43.162;20.538;2022-07-19T02:58:47;409.70;2048.00
55151;DHT22;41041;43.162;20.538;2022-07-19T03:01:13;409.60;2048.00
55151;DHT22;41041;43.162;20.538;2022-07-19T03:03:39;384.90;2022.40
55151;DHT22;41041;43.162;20.538;2022-07-19T03:06:12;384.90;2022.40
55151;DHT22;41041;43.162;20.538;2022-07-19T03:08:38;384.90;2022.40
55151;DHT22;41041;43.162;20.538;2022-07-19T03:11:04;384.90;2022.40
55151;DHT22;41041;43.162;20.538;2022-07-19T03:13:30;384.80;2022.40
55151;DHT22;41041;43.162;20.538;2022-07-19T03:15:55;384.80;2048.00
55151;DHT22;41041;43.162;20.538;2022-07-19T03:18:21;384.70;2048.00
55151;DHT22;41041;43.162;20.538;2022-07-19T03:20:47;384.80;2048.00
55151;DHT22;41041;43.162;20.538;2022-07-19T03:23:12;384.80;2048.00
55151;DHT22;41041;43.162;20.538;2022-07-19T03:25:38;384.80;2048.00
55151;DHT22;41041;43.162;20.538;2022-07-19T03:28:04;384.70;2048.00
55151;DHT22;41041;43.162;20.538;2022-07-19T03:30:30;384.80;2048.00
55151;DHT22;41041;43.162;20.538;2022-07-19T03:32:58;384.80;2048.00
55151;DHT22;41041;43.162;20.538;2022-07-19T03:35:24;384.80;2048.00
55151;DHT22;41041;43.162;20.538;2022-07-19T03:37:49;384.80;2048.00
55151;DHT22;41041;43.162;20.538;2022-07-19T03:40:15;384.80;2022.40
55151;DHT22;41041;43.162;20.538;2022-07-19T03:42:41;384.90;2022.40
55151;DHT22;41041;43.162;20.538;2022-07-19T03:45:07;384.80;2048.00
55151;DHT22;41041;43.162;20.538;2022-07-19T03:47:33;384.80;2048.00
55151;DHT22;41041;43.162;20.538;2022-07-19T03:49:59;384.80;2048.00
55151;DHT22;41041;43.162;20.538;2022-07-19T03:52:27;384.80;2048.00
55151;DHT22;41041;43.162;20.538;2022-07-19T03:54:53;384.70;2073.60
55151;DHT22;41041;43.162;20.538;2022-07-19T03:57:21;384.70;2048.00
55151;DHT22;41041;43.162;20.538;2022-07-19T03:59:47;384.70;2073.60
55151;DHT22;41041;43.162;20.538;2022-07-19T04:02:13;384.60;2073.60
55151;DHT22;41041;43.162;20.538;2022-07-19T04:04:38;384.50;2073.60
55151;DHT22;41041;43.162;20.538;2022-07-19T04:07:04;384.50;2073.60
55151;DHT22;41041;43.162;20.538;2022-07-19T04:09:30;384.60;2073.60
55151;DHT22;41041;43.162;20.538;2022-07-19T04:11:56;384.60;2073.60
55151;DHT22;41041;43.162;20.538;2022-07-19T04:14:21;384.60;2073.60
55151;DHT22;41041;43.162;20.538;2022-07-19T04:16:48;384.70;2073.60
55151;DHT22;41041;43.162;20.538;2022-07-19T04:19:14;384.70;2073.60
55151;DHT22;41041;43.162;20.538;2022-07-19T04:21:39;384.70;2073.60
55151;DHT22;41041;43.162;20.538;2022-07-19T04:24:07;384.70;2073.60
55151;DHT22;41041;43.162;20.538;2022-07-19T04:26:33;384.80;2073.60
55151;DHT22;41041;43.162;20.538;2022-07-19T04:28:58;384.70;2073.60
55151;DHT22;41041;43.162;20.538;2022-07-19T04:31:24;384.70;2073.60
55151;DHT22;41041;43.162;20.538;2022-07-19T04:33:50;384.70;2073.60
55151;DHT22;41041;43.162;20.538;2022-07-19T04:36:16;384.70;2073.60
55151;DHT22;41041;43.162;20.538;2022-07-19T04:38:42;384.70;2099.20
55151;DHT22;41041;43.162;20.538;2022-07-19T04:41:07;384.80;2099.20
55151;DHT22;41041;43.162;20.538;2022-07-19T04:43:33;384.80;2099.20
55151;DHT22;41041;43.162;20.538;2022-07-19T04:45:59;384.80;2099.20
55151;DHT22;41041;43.162;20.538;2022-07-19T04:48:26;384.80;2099.20
55151;DHT22;41041;43.162;20.538;2022-07-19T04:50:52;384.90;2073.60
55151;DHT22;41041;43.162;20.538;2022-07-19T04:53:17;384.90;2099.20
55151;DHT22;41041;43.162;20.538;2022-07-19T04:55:43;384.90;2099.20
55151;DHT22;41041;43.162;20.538;2022-07-19T04:58:09;409.60;2124.80
55151;DHT22;41041;43.162;20.538;2022-07-19T05:00:35;409.60;2124.80
55151;DHT22;41041;43.162;20.538;2022-07-19T05:03:01;409.60;2124.80
55151;DHT22;41041;43.162;20.538;2022-07-19T05:05:26;409.60;2124.80
55151;DHT22;41041;43.162;20.538;2022-07-19T05:07:52;409.70;2124.80
55151;DHT22;41041;43.162;20.538;2022-07-19T05:10:18;409.80;2150.40
55151;DHT22;41041;43.162;20.538;2022-07-19T05:12:43;409.80;2150.40
55151;DHT22;41041;43.162;20.538;2022-07-19T05:15:10;409.90;2124.80
55151;DHT22;41041;43.162;20.538;2022-07-19T05:17:36;410.00;2124.80
55151;DHT22;41041;43.162;20.538;2022-07-19T05:20:03;410.10;2124.80
55151;DHT22;41041;43.162;20.538;2022-07-19T05:22:31;410.10;2124.80
55151;DHT22;41041;43.162;20.538;2022-07-19T05:24:56;410.40;2099.20
55151;DHT22;41041;43.162;20.538;2022-07-19T05:27:22;410.30;2099.20
55151;DHT22;41041;43.162;20.538;2022-07-19T05:29:48;410.40;2124.80
55151;DHT22;41041;43.162;20.538;2022-07-19T05:32:14;410.50;2124.80
55151;DHT22;41041;43.162;20.538;2022-07-19T05:34:40;410.50;2150.40
55151;DHT22;41041;43.162;20.538;2022-07-19T05:37:06;435.20;2124.80
55151;DHT22;41041;43.162;20.538;2022-07-19T05:39:32;435.30;2099.20
55151;DHT22;41041;43.162;20.538;2022-07-19T05:41:58;435.30;2124.80
55151;DHT22;41041;43.162;20.538;2022-07-19T05:44:24;435.40;2099.20
55151;DHT22;41041;43.162;20.538;2022-07-19T05:46:56;435.50;2073.60
55151;DHT22;41041;43.162;20.538;2022-07-19T05:49:22;435.70;2099.20
55151;DHT22;41041;43.162;20.538;2022-07-19T05:51:48;435.80;2048.00
55151;DHT22;41041;43.162;20.538;2022-07-19T05:54:14;435.90;2022.40
55151;DHT22;41041;43.162;20.538;2022-07-19T05:56:39;436.00;1996.80
55151;DHT22;41041;43.162;20.538;2022-07-19T05:59:05;460.80;2048.00
55151;DHT22;41041;43.162;20.538;2022-07-19T06:01:31;436.10;2073.60
55151;DHT22;41041;43.162;20.538;2022-07-19T06:04:00;436.10;2022.40
55151;DHT22;41041;43.162;20.538;2022-07-19T06:06:28;460.80;2048.00
55151;DHT22;41041;43.162;20.538;2022-07-19T06:08:54;460.80;2073.60
55151;DHT22;41041;43.162;20.538;2022-07-19T06:11:21;460.90;2073.60
55151;DHT22;41041;43.162;20.538;2022-07-19T06:13:48;461.00;2048.00
55151;DHT22;41041;43.162;20.538;2022-07-19T06:16:14;461.00;2048.00
55151;DHT22;41041;43.162;20.538;2022-07-19T06:18:40;461.10;2022.40
55151;DHT22;41041;43.162;20.538;2022-07-19T06:21:11;461.20;2022.40
55151;DHT22;41041;43.162;20.538;2022-07-19T06:23:38;461.30;2048.00
55151;DHT22;41041;43.162;20.538;2022-07-19T06:26:18;461.30;1996.80
55151;DHT22;41041;43.162;20.538;2022-07-19T06:28:44;461.30;1971.20
55151;DHT22;41041;43.162;20.538;2022-07-19T06:31:12;461.40;2022.40
55151;DHT22;41041;43.162;20.538;2022-07-19T06:33:39;461.50;1971.20
55151;DHT22;41041;43.162;20.538;2022-07-19T06:36:05;461.60;1945.60
55151;DHT22;41041;43.162;20.538;2022-07-19T06:38:34;461.70;1920.00
55151;DHT22;41041;43.162;20.538;2022-07-19T06:41:01;461.60;1894.40
55151;DHT22;41041;43.162;20.538;2022-07-19T06:43:26;461.70;1920.00
55151;DHT22;41041;43.162;20.538;2022-07-19T06:45:54;486.40;1894.40
55151;DHT22;41041;43.162;20.538;2022-07-19T06:48:23;486.40;1894.40
55151;DHT22;41041;43.162;20.538;2022-07-19T06:50:49;486.50;1868.80
55151;DHT22;41041;43.162;20.538;2022-07-19T06:53:15;486.60;1894.40
55151;DHT22;41041;43.162;20.538;2022-07-19T06:55:40;486.60;1817.60
55151;DHT22;41041;43.162;20.538;2022-07-19T06:58:06;486.70;1843.20
55151;DHT22;41041;43.162;20.538;2022-07-19T07:00:32;486.90;1868.80
55151;DHT22;41041;43.162;20.538;2022-07-19T07:02:58;487.00;1868.80
55151;DHT22;41041;43.162;20.538;2022-07-19T07:05:24;487.20;1868.80
55151;DHT22;41041;43.162;20.538;2022-07-19T07:07:51;487.30;1868.80
55151;DHT22;41041;43.162;20.538;2022-07-19T07:10:19;512.00;1894.40
55151;DHT22;41041;43.162;20.538;2022-07-19T07:12:45;512.10;1843.20
55151;DHT22;41041;43.162;20.538;2022-07-19T07:15:12;512.20;1843.20
55151;DHT22;41041;43.162;20.538;2022-07-19T07:17:38;512.40;1817.60
55151;DHT22;41041;43.162;20.538;2022-07-19T07:20:05;512.50;1792.00
55151;DHT22;41041;43.162;20.538;2022-07-19T07:22:32;512.70;1740.80
55151;DHT22;41041;43.162;20.538;2022-07-19T07:24:58;512.80;1766.40
55151;DHT22;41041;43.162;20.538;2022-07-19T07:27:24;512.90;1740.80
55151;DHT22;41041;43.162;20.538;2022-07-19T07:29:50;512.90;1715.20
55151;DHT22;41041;43.162;20.538;2022-07-19T07:32:16;537.60;1766.40
55151;DHT22;41041;43.162;20.538;2022-07-19T07:34:42;537.70;1792.00
55151;DHT22;41041;43.162;20.538;2022-07-19T07:37:08;537.80;1792.00
55151;DHT22;41041;43.162;20.538;2022-07-19T07:39:50;537.90;1766.40
55151;DHT22;41041;43.162;20.538;2022-07-19T07:42:16;537.90;1766.40
55151;DHT22;41041;43.162;20.538;2022-07-19T07:44:42;538.00;1740.80
55151;DHT22;41041;43.162;20.538;2022-07-19T07:47:11;538.10;1740.80
55151;DHT22;41041;43.162;20.538;2022-07-19T07:49:37;538.20;1766.40
55151;DHT22;41041;43.162;20.538;2022-07-19T07:52:03;538.30;1766.40
55151;DHT22;41041;43.162;20.538;2022-07-19T07:54:29;538.40;1740.80
55151;DHT22;41041;43.162;20.538;2022-07-19T07:56:59;538.50;1740.80
55151;DHT22;41041;43.162;20.538;2022-07-19T07:59:25;538.40;1715.20
55151;DHT22;41041;43.162;20.538;2022-07-19T08:01:51;538.50;1740.80
55151;DHT22;41041;43.162;20.538;2022-07-19T08:04:32;563.20;1766.40
55151;DHT22;41041;43.162;20.538;2022-07-19T08:07:00;563.30;1740.80
55151;DHT22;41041;43.162;20.538;2022-07-19T08:12:10;563.50;1766.40
55151;DHT22;41041;43.162;20.538;2022-07-19T08:14:36;563.50;1740.80
55151;DHT22;41041;43.162;20.538;2022-07-19T08:17:02;563.60;1740.80
55151;DHT22;41041;43.162;20.538;2022-07-19T08:19:31;563.70;1664.00
55151;DHT22;41041;43.162;20.538;2022-07-19T08:21:57;563.70;1689.60
55151;DHT22;41041;43.162;20.538;2022-07-19T08:24:23;563.80;1689.60
55151;DHT22;41041;43.162;20.538;2022-07-19T08:26:49;563.90;1689.60
55151;DHT22;41041;43.162;20.538;2022-07-19T08:29:14;564.00;1689.60
55151;DHT22;41041;43.162;20.538;2022-07-19T08:31:40;564.10;1689.60
55151;DHT22;41041;43.162;20.538;2022-07-19T08:34:06;588.80;1664.00
55151;DHT22;41041;43.162;20.538;2022-07-19T08:36:32;588.90;1664.00
55151;DHT22;41041;43.162;20.538;2022-07-19T08:39:06;589.00;1638.40
55151;DHT22;41041;43.162;20.538;2022-07-19T08:41:32;589.00;1664.00
55151;DHT22;41041;43.162;20.538;2022-07-19T08:44:02;589.10;1638.40
55151;DHT22;41041;43.162;20.538;2022-07-19T08:46:29;589.20;1689.60
55151;DHT22;41041;43.162;20.538;2022-07-19T08:48:57;589.30;1612.80
55151;DHT22;41041;43.162;20.538;2022-07-19T08:51:23;589.40;1638.40
55151;DHT22;41041;43.162;20.538;2022-07-19T08:53:49;589.50;1612.80
55151;DHT22;41041;43.162;20.538;2022-07-19T08:56:16;589.60;1612.80
55151;DHT22;41041;43.162;20.538;2022-07-19T08:59:01;589.60;1664.00
55151;DHT22;41041;43.162;20.538;2022-07-19T09:01:40;589.70;1612.80
55151;DHT22;41041;43.162;20.538;2022-07-19T09:06:48;589.70;1638.40
55151;DHT22;41041;43.162;20.538;2022-07-19T09:09:40;614.40;1561.60
55151;DHT22;41041;43.162;20.538;2022-07-19T09:12:06;614.40;1561.60
55151;DHT22;41041;43.162;20.538;2022-07-19T09:14:34;614.50;1587.20
55151;DHT22;41041;43.162;20.538;2022-07-19T09:17:08;614.60;1587.20
55151;DHT22;41041;43.162;20.538;2022-07-19T09:19:44;614.70;1612.80
55151;DHT22;41041;43.162;20.538;2022-07-19T09:22:14;614.70;1612.80
55151;DHT22;41041;43.162;20.538;2022-07-19T09:27:57;614.70;1561.60
55151;DHT22;41041;43.162;20.538;2022-07-19T09:30:38;614.80;1536.00
55151;DHT22;41041;43.162;20.538;2022-07-19T09:33:11;614.80;1536.00
55151;DHT22;41041;43.162;20.538;2022-07-19T09:35:40;614.90;1510.40
55151;DHT22;41041;43.162;20.538;2022-07-19T09:38:33;615.00;1536.00
55151;DHT22;41041;43.162;20.538;2022-07-19T09:41:13;615.00;1510.40
55151;DHT22;41041;43.162;20.538;2022-07-19T09:43:56;615.10;1484.80
55151;DHT22;41041;43.162;20.538;2022-07-19T09:49:03;615.10;1484.80
55151;DHT22;41041;43.162;20.538;2022-07-19T09:51:33;615.30;1510.40
55151;DHT22;41041;43.162;20.538;2022-07-19T09:54:01;615.30;1484.80
55151;DHT22;41041;43.162;20.538;2022-07-19T09:56:29;640.00;1510.40
55151;DHT22;41041;43.162;20.538;2022-07-19T09:58:57;640.10;1484.80
55151;DHT22;41041;43.162;20.538;2022-07-19T10:01:24;640.30;1484.80
55151;DHT22;41041;43.162;20.538;2022-07-19T10:03:54;640.30;1459.20
55151;DHT22;41041;43.162;20.538;2022-07-19T10:06:20;640.30;1459.20
55151;DHT22;41041;43.162;20.538;2022-07-19T10:08:51;640.30;1484.80
55151;DHT22;41041;43.162;20.538;2022-07-19T10:11:18;640.40;1459.20
55151;DHT22;41041;43.162;20.538;2022-07-19T10:13:44;640.40;1459.20
55151;DHT22;41041;43.162;20.538;2022-07-19T10:16:14;640.40;1459.20
55151;DHT22;41041;43.162;20.538;2022-07-19T10:19:16;640.50;1459.20
55151;DHT22;41041;43.162;20.538;2022-07-19T10:21:37;640.60;1433.60
55151;DHT22;41041;43.162;20.538;2022-07-19T10:29:52;640.60;1433.60
55151;DHT22;41041;43.162;20.538;2022-07-19T10:32:45;640.80;1459.20
55151;DHT22;41041;43.162;20.538;2022-07-19T10:37:53;640.80;1408.00
55151;DHT22;41041;43.162;20.538;2022-07-19T10:40:48;640.90;1433.60
55151;DHT22;41041;43.162;20.538;2022-07-19T10:43:20;640.90;1433.60
55151;DHT22;41041;43.162;20.538;2022-07-19T10:48:53;665.70;1433.60
55151;DHT22;41041;43.162;20.538;2022-07-19T10:51:52;665.70;1433.60
55151;DHT22;41041;43.162;20.538;2022-07-19T10:54:18;665.70;1356.80
55151;DHT22;41041;43.162;20.538;2022-07-19T10:56:59;665.80;1382.40
55151;DHT22;41041;43.162;20.538;2022-07-19T10:59:32;665.90;1382.40
55151;DHT22;41041;43.162;20.538;2022-07-19T11:05:26;666.00;1433.60
55151;DHT22;41041;43.162;20.538;2022-07-19T11:07:54;665.90;1408.00
55151;DHT22;41041;43.162;20.538;2022-07-19T11:10:28;666.10;1382.40
55151;DHT22;41041;43.162;20.538;2022-07-19T11:12:58;666.00;1382.40
55151;DHT22;41041;43.162;20.538;2022-07-19T11:15:25;666.10;1433.60
55151;DHT22;41041;43.162;20.538;2022-07-19T11:18:00;666.10;1382.40
55151;DHT22;41041;43.162;20.538;2022-07-19T11:20:31;666.10;1356.80
55151;DHT22;41041;43.162;20.538;2022-07-19T11:22:57;666.10;1382.40
55151;DHT22;41041;43.162;20.538;2022-07-19T11:25:35;666.20;1382.40
55151;DHT22;41041;43.162;20.538;2022-07-19T11:28:22;666.20;1408.00
55151;DHT22;41041;43.162;20.538;2022-07-19T11:30:49;666.20;1382.40
55151;DHT22;41041;43.162;20.538;2022-07-19T11:33:17;666.20;1408.00
55151;DHT22;41041;43.162;20.538;2022-07-19T11:35:58;666.40;1382.40
55151;DHT22;41041;43.162;20.538;2022-07-19T11:38:33;666.50;1382.40
55151;DHT22;41041;43.162;20.538;2022-07-19T11:40:59;666.50;1382.40
55151;DHT22;41041;43.162;20.538;2022-07-19T11:43:25;691.20;1408.00
55151;DHT22;41041;43.162;20.538;2022-07-19T11:45:51;691.20;1382.40
55151;DHT22;41041;43.162;20.538;2022-07-19T11:48:29;691.20;1408.00
55151;DHT22;41041;43.162;20.538;2022-07-19T11:51:07;691.20;1382.40
55151;DHT22;41041;43.162;20.538;2022-07-19T11:53:35;691.20;1408.00
55151;DHT22;41041;43.162;20.538;2022-07-19T11:56:02;666.50;1356.80
55151;DHT22;41041;43.162;20.538;2022-07-19T11:58:28;691.20;1382.40
55151;DHT22;41041;43.162;20.538;2022-07-19T12:01:00;691.20;1382.40
55151;DHT22;41041;43.162;20.538;2022-07-19T12:03:26;691.20;1356.80
55151;DHT22;41041;43.162;20.538;2022-07-19T12:06:00;691.30;1382.40
55151;DHT22;41041;43.162;20.538;2022-07-19T12:10:59;691.40;1382.40
55151;DHT22;41041;43.162;20.538;2022-07-19T12:13:35;691.40;1331.20
55151;DHT22;41041;43.162;20.538;2022-07-19T12:16:10;691.50;1331.20
55151;DHT22;41041;43.162;20.538;2022-07-19T12:18:56;691.50;1331.20
55151;DHT22;41041;43.162;20.538;2022-07-19T12:24:23;691.40;1331.20
55151;DHT22;41041;43.162;20.538;2022-07-19T12:26:59;691.40;1331.20
55151;DHT22;41041;43.162;20.538;2022-07-19T12:33:06;691.50;1331.20
55151;DHT22;41041;43.162;20.538;2022-07-19T12:35:47;691.70;1331.20
55151;DHT22;41041;43.162;20.538;2022-07-19T12:38:14;691.70;1280.00
55151;DHT22;41041;43.162;20.538;2022-07-19T12:44:02;691.80;1305.60
55151;DHT22;41041;43.162;20.538;2022-07-19T12:46:27;691.80;1305.60
55151;DHT22;41041;43.162;20.538;2022-07-19T12:48:53;691.70;1280.00
55151;DHT22;41041;43.162;20.538;2022-07-19T12:51:19;691.70;1280.00
55151;DHT22;41041;43.162;20.538;2022-07-19T12:53:44;691.80;1280.00
55151;DHT22;41041;43.162;20.538;2022-07-19T12:56:10;692.00;1305.60
55151;DHT22;41041;43.162;20.538;2022-07-19T12:58:36;716.80;1305.60
55151;DHT22;41041;43.162;20.538;2022-07-19T13:01:20;716.80;1254.40
55151;DHT22;41041;43.162;20.538;2022-07-19T13:03:46;716.80;1254.40
55151;DHT22;41041;43.162;20.538;2022-07-19T13:06:13;716.90;1254.40
55151;DHT22;41041;43.162;20.538;2022-07-19T13:08:40;717.10;1305.60
55151;DHT22;41041;43.162;20.538;2022-07-19T13:11:05;717.10;1305.60
55151;DHT22;41041;43.162;20.538;2022-07-19T13:13:31;717.10;1280.00
55151;DHT22;41041;43.162;20.538;2022-07-19T13:15:57;717.20;1280.00
55151;DHT22;41041;43.162;20.538;2022-07-19T13:18:22;717.20;1254.40
55151;DHT22;41041;43.162;20.538;2022-07-19T13:20:48;717.30;1254.40
55151;DHT22;41041;43.162;20.538;2022-07-19T13:23:17;717.40;1254.40
55151;DHT22;41041;43.162;20.538;2022-07-19T13:25:42;717.50;1228.80
55151;DHT22;41041;43.162;20.538;2022-07-19T13:28:08;717.50;1228.80
55151;DHT22;41041;43.162;20.538;2022-07-19T13:30:34;717.60;1203.20
55151;DHT22;41041;43.162;20.538;2022-07-19T13:33:01;717.40;1254.40
55151;DHT22;41041;43.162;20.538;2022-07-19T13:35:27;717.30;1254.40
55151;DHT22;41041;43.162;20.538;2022-07-19T13:37:53;717.30;1254.40
55151;DHT22;41041;43.162;20.538;2022-07-19T13:40:18;717.10;1228.80
55151;DHT22;41041;43.162;20.538;2022-07-19T13:42:44;717.30;1228.80
55151;DHT22;41041;43.162;20.538;2022-07-19T13:45:10;717.40;1228.80
55151;DHT22;41041;43.162;20.538;2022-07-19T13:47:51;717.40;1228.80
55151;DHT22;41041;43.162;20.538;2022-07-19T13:50:17;717.50;1203.20
55151;DHT22;41041;43.162;20.538;2022-07-19T13:52:42;717.60;1228.80
55151;DHT22;41041;43.162;20.538;2022-07-19T13:55:09;717.70;1177.60
55151;DHT22;41041;43.162;20.538;2022-07-19T13:57:35;742.40;1228.80
55151;DHT22;41041;43.162;20.538;2022-07-19T14:00:00;742.40;1203.20
55151;DHT22;41041;43.162;20.538;2022-07-19T14:02:30;742.50;1177.60
55151;DHT22;41041;43.162;20.538;2022-07-19T14:04:56;742.50;1228.80
55151;DHT22;41041;43.162;20.538;2022-07-19T14:07:22;742.70;1177.60
55151;DHT22;41041;43.162;20.538;2022-07-19T14:09:47;742.90;1177.60
55151;DHT22;41041;43.162;20.538;2022-07-19T14:12:18;743.10;1203.20
55151;DHT22;41041;43.162;20.538;2022-07-19T14:14:44;743.10;1177.60
55151;DHT22;41041;43.162;20.538;2022-07-19T14:17:10;768.00;1152.00
55151;DHT22;41041;43.162;20.538;2022-07-19T14:19:36;768.00;1152.00
55151;DHT22;41041;43.162;20.538;2022-07-19T14:22:03;768.30;1126.40
55151;DHT22;41041;43.162;20.538;2022-07-19T14:24:29;768.20;1100.80
55151;DHT22;41041;43.162;20.538;2022-07-19T14:26:55;768.30;1126.40
55151;DHT22;41041;43.162;20.538;2022-07-19T14:29:21;768.50;1100.80
55151;DHT22;41041;43.162;20.538;2022-07-19T14:31:46;768.50;1100.80
55151;DHT22;41041;43.162;20.538;2022-07-19T14:34:12;768.50;1152.00
55151;DHT22;41041;43.162;20.538;2022-07-19T14:36:38;768.50;1126.40
55151;DHT22;41041;43.162;20.538;2022-07-19T14:39:31;768.50;1100.80
55151;DHT22;41041;43.162;20.538;2022-07-19T14:41:57;768.50;1100.80
55151;DHT22;41041;43.162;20.538;2022-07-19T14:44:26;768.60;1100.80
55151;DHT22;41041;43.162;20.538;2022-07-19T14:46:52;768.70;1100.80
55151;DHT22;41041;43.162;20.538;2022-07-19T14:49:22;768.60;1126.40
55151;DHT22;41041;43.162;20.538;2022-07-19T14:51:48;768.70;1100.80
55151;DHT22;41041;43.162;20.538;2022-07-19T14:54:13;793.90;1100.80
55151;DHT22;41041;43.162;20.538;2022-07-19T14:56:41;794.30;1049.60
55151;DHT22;41041;43.162;20.538;2022-07-19T14:59:07;794.50;1075.20
55151;DHT22;41041;43.162;20.538;2022-07-19T15:01:33;819.30;1024.00
55151;DHT22;41041;43.162;20.538;2022-07-19T15:03:59;794.40;1024.00
55151;DHT22;41041;43.162;20.538;2022-07-19T15:06:24;794.40;1049.60
55151;DHT22;41041;43.162;20.538;2022-07-19T15:08:50;819.50;1049.60
55151;DHT22;41041;43.162;20.538;2022-07-19T15:11:16;819.50;1024.00
55151;DHT22;41041;43.162;20.538;2022-07-19T15:13:42;819.30;1075.20
55151;DHT22;41041;43.162;20.538;2022-07-19T15:16:08;794.40;1049.60
55151;DHT22;41041;43.162;20.538;2022-07-19T15:18:34;794.10;1049.60
55151;DHT22;41041;43.162;20.538;2022-07-19T15:21:00;794.10;1075.20